Weather at Big Spring Mc Mahon-Wrinkle Airport

Public forecast

Using degrees Fahrenheit for public forecast. Weather courtesy of forecast.io.

Current aviation weather report (METAR) for Big Spring Mc Mahon-Wrinkle Airport

Retrieved 2020/10/01 11:35 UTC (4 minutes ago):

KBPG 011135Z AUTO 00000KT 10SM CLR 13/00 A3019 RMK AO2 T01300003

Closest aviation forecast (TAF) to Big Spring Mc Mahon-Wrinkle Airport

Closest forecast is Midland International Airport, 38.2 nm (70.8 km) WSW. Retrieved 2020/10/01 06:22 UTC (5 hours ago):

TAF KMAF 010520Z 0106/0206 19010KT P6SM SKC FM011200 06010KT P6SM SKC FM020100 08011KT P6SM SKC